Mason Township, Maine
Current Conditions -  °F | °C
As of 9:52 AM on Thursday 23 Oct 2014 (Local Time) from KBML Reporting Station
Light Rain Light Rain  
Wind Chill: 39°   Ceiling: 1500
Heat Index: 45°   Visibility: 7mi
Dew Point: 43°   Wind: 12mph
Humidity: 93%   Direction: 360°N
Pressure: 29.91"   Gusts: 22mph
Location:  44.3718°N, 70.8421°W
Report Text: KBML 231352Z AUTO 36010G19KT 7SM -RA BKN015 OVC022 07/06 A2991 RMK AO2 SLP135 P0003 T00720061
Loading
Personal Weather Stations






























Interactive Weather Map
Tropical Storm Tracking
New forecast layout! Learn more

10-Day Weather Forecast

Advertisements
Track Severe Weather on mobile